createdAt,value
2018-05-17T00:01:31.427Z,18.15
2018-05-17T00:04:01.224Z,18.19
2018-05-17T00:06:31.126Z,18.20
2018-05-17T00:09:00.816Z,18.27
2018-05-17T00:11:30.532Z,18.26
2018-05-17T00:14:00.205Z,18.14
2018-05-17T00:16:30.065Z,18.07
2018-05-17T00:19:00.403Z,18.07
2018-05-17T00:21:30.718Z,17.94
2018-05-17T00:24:00.444Z,18.09
2018-05-17T00:26:30.182Z,18.23
2018-05-17T00:28:59.947Z,18.26
2018-05-17T00:31:29.639Z,18.25
2018-05-17T00:33:59.375Z,18.14
2018-05-17T00:36:29.065Z,18.13
2018-05-17T00:38:58.742Z,18.08
2018-05-17T00:41:28.519Z,18.03
2018-05-17T00:43:58.252Z,17.88
2018-05-17T00:46:27.980Z,17.85
2018-05-17T00:48:57.668Z,17.81
2018-05-17T00:51:27.341Z,17.76
2018-05-17T00:53:57.042Z,17.64
2018-05-17T00:56:26.824Z,17.46
2018-05-17T00:58:56.511Z,17.43
2018-05-17T01:01:26.247Z,17.50
2018-05-17T01:03:55.914Z,17.46
2018-05-17T01:06:25.601Z,17.58
2018-05-17T01:08:55.323Z,17.55
2018-05-17T01:11:25.045Z,17.46
2018-05-17T01:13:54.782Z,17.44
2018-05-17T01:16:24.482Z,17.48
2018-05-17T01:18:54.227Z,17.41
2018-05-17T01:21:24.314Z,17.33
2018-05-17T01:23:54.048Z,17.48
2018-05-17T01:26:23.776Z,17.36
2018-05-17T01:28:53.454Z,17.49
2018-05-17T01:31:23.348Z,17.49
2018-05-17T01:33:53.087Z,17.48
2018-05-17T01:36:22.764Z,17.43
2018-05-17T01:38:52.484Z,17.49
2018-05-17T01:41:22.275Z,17.45
2018-05-17T01:43:52.648Z,17.44
2018-05-17T01:46:22.373Z,17.44
2018-05-17T01:48:53.560Z,17.36
2018-05-17T01:51:23.259Z,17.27
2018-05-17T01:53:52.950Z,17.28
2018-05-17T01:56:22.684Z,17.34
2018-05-17T01:58:52.380Z,17.30
2018-05-17T02:01:22.087Z,17.29
2018-05-17T02:03:51.815Z,17.24
2018-05-17T02:06:21.504Z,17.23
2018-05-17T02:08:51.227Z,17.25
2018-05-17T02:11:21.371Z,17.17
2018-05-17T02:13:51.037Z,17.00
2018-05-17T02:16:20.786Z,17.07
2018-05-17T02:18:50.851Z,17.10
2018-05-17T02:21:20.567Z,17.02
2018-05-17T02:23:50.252Z,17.03
2018-05-17T02:26:19.977Z,17.22
2018-05-17T02:28:49.686Z,17.22
2018-05-17T02:31:19.360Z,17.27
2018-05-17T02:33:49.050Z,17.19
2018-05-17T02:36:18.813Z,17.09
2018-05-17T02:38:48.500Z,17.22
2018-05-17T02:41:18.244Z,17.34
2018-05-17T02:43:47.989Z,17.31
2018-05-17T02:46:17.688Z,17.16
2018-05-17T02:48:47.440Z,17.28
2018-05-17T02:51:17.115Z,17.20
2018-05-17T02:53:46.806Z,17.28
2018-05-17T02:56:16.910Z,17.28
2018-05-17T02:58:46.580Z,17.37
2018-05-17T03:01:16.481Z,17.26
2018-05-17T03:03:46.151Z,17.27
2018-05-17T03:06:15.853Z,17.29
2018-05-17T03:08:45.888Z,17.37
2018-05-17T03:11:15.757Z,17.25
2018-05-17T03:13:45.472Z,17.14
2018-05-17T03:16:15.151Z,17.11
2018-05-17T03:18:45.476Z,17.08
2018-05-17T03:21:15.136Z,17.03
2018-05-17T03:23:44.835Z,16.91
2018-05-17T03:26:14.558Z,16.85
2018-05-17T03:28:44.251Z,17.07
2018-05-17T03:31:13.981Z,17.27
2018-05-17T03:33:43.716Z,17.44
2018-05-17T03:36:13.404Z,17.52
2018-05-17T03:38:43.110Z,17.38
2018-05-17T03:41:12.809Z,17.32
2018-05-17T03:43:42.540Z,17.26
2018-05-17T03:46:12.238Z,17.28
2018-05-17T03:48:41.900Z,17.27
2018-05-17T03:51:11.646Z,17.38
2018-05-17T03:53:41.390Z,17.43
2018-05-17T03:56:11.086Z,17.30
2018-05-17T03:58:41.485Z,17.08
2018-05-17T04:01:23.346Z,17.09
2018-05-17T04:04:04.763Z,17.10
2018-05-17T04:06:40.280Z,17.12
2018-05-17T04:09:10.517Z,17.20
2018-05-17T04:11:40.204Z,17.40
2018-05-17T04:14:09.911Z,17.40
2018-05-17T04:16:39.678Z,17.34
2018-05-17T04:19:09.987Z,17.36
2018-05-17T04:21:39.746Z,17.44
2018-05-17T04:24:09.501Z,17.67
2018-05-17T04:26:39.232Z,17.76
2018-05-17T04:29:09.422Z,17.93
2018-05-17T04:31:39.167Z,18.00
2018-05-17T04:34:08.905Z,18.25
2018-05-17T04:36:38.575Z,18.42
2018-05-17T04:39:08.364Z,18.50
2018-05-17T04:41:38.061Z,18.59
2018-05-17T04:44:07.794Z,18.66
2018-05-17T04:46:37.512Z,18.85
2018-05-17T04:49:07.365Z,18.83
2018-05-17T04:51:37.074Z,18.92
2018-05-17T04:54:06.816Z,19.09
2018-05-17T04:56:36.519Z,19.02
2018-05-17T04:59:06.283Z,19.22
2018-05-17T05:01:35.943Z,19.53
2018-05-17T05:04:06.355Z,19.75
2018-05-17T05:06:36.049Z,19.90
2018-05-17T05:09:06.812Z,20.02
2018-05-17T05:11:36.501Z,20.11
2018-05-17T05:14:06.217Z,20.13
2018-05-17T05:16:36.010Z,20.23
2018-05-17T05:19:05.717Z,20.49
2018-05-17T05:21:35.462Z,20.58
2018-05-17T05:24:05.181Z,20.71
2018-05-17T05:26:35.128Z,20.89
2018-05-17T05:29:04.800Z,21.04
2018-05-17T05:31:34.613Z,21.14
2018-05-17T05:34:05.184Z,21.37
2018-05-17T05:36:34.916Z,21.61
2018-05-17T05:39:05.392Z,21.95
2018-05-17T05:41:35.579Z,21.99
2018-05-17T05:44:05.336Z,22.01
2018-05-17T05:46:35.027Z,22.06
2018-05-17T05:49:04.762Z,22.06
2018-05-17T05:51:34.444Z,22.20
2018-05-17T05:54:04.839Z,22.33
2018-05-17T05:56:34.520Z,22.30
2018-05-17T05:59:04.353Z,22.50
2018-05-17T06:01:34.237Z,22.57
2018-05-17T06:04:03.961Z,22.65
2018-05-17T06:06:33.666Z,22.48
2018-05-17T06:09:03.490Z,22.72
2018-05-17T06:11:33.169Z,22.83
2018-05-17T06:14:02.896Z,23.16
2018-05-17T06:16:32.780Z,23.23
2018-05-17T06:19:02.461Z,23.47
2018-05-17T06:21:32.208Z,23.71
2018-05-17T06:24:01.902Z,23.62
2018-05-17T06:26:31.581Z,23.63
2018-05-17T06:29:01.341Z,23.60
2018-05-17T06:31:31.027Z,24.23
2018-05-17T06:34:01.148Z,24.50
2018-05-17T06:36:30.853Z,24.34
2018-05-17T06:39:00.644Z,24.73
2018-05-17T06:41:30.612Z,25.06
2018-05-17T06:44:00.358Z,25.53
2018-05-17T06:46:30.055Z,26.06
2018-05-17T06:48:59.733Z,26.04
2018-05-17T06:51:29.427Z,26.01
2018-05-17T06:53:59.276Z,25.89
2018-05-17T06:56:29.559Z,25.99
2018-05-17T06:58:59.341Z,26.35
2018-05-17T07:01:29.059Z,26.09
2018-05-17T07:03:58.850Z,26.18
2018-05-17T07:06:29.622Z,26.29
2018-05-17T07:09:00.152Z,26.49
2018-05-17T07:11:30.326Z,26.43
2018-05-17T07:14:00.063Z,26.16
2018-05-17T07:16:30.014Z,26.20
2018-05-17T07:18:59.984Z,26.03
2018-05-17T07:21:29.669Z,25.81
2018-05-17T07:23:59.830Z,25.62
2018-05-17T07:26:30.089Z,26.01
2018-05-17T07:29:00.289Z,26.59
2018-05-17T07:31:30.071Z,27.30
2018-05-17T07:33:59.727Z,26.85
2018-05-17T07:36:30.083Z,26.81
2018-05-17T07:38:59.783Z,27.32
2018-05-17T07:41:29.847Z,27.30
2018-05-17T07:43:59.529Z,27.00
2018-05-17T07:46:29.200Z,27.05
2018-05-17T07:48:59.013Z,26.94
2018-05-17T07:51:28.708Z,27.09
2018-05-17T07:53:58.385Z,27.35
2018-05-17T07:56:28.136Z,27.59
2018-05-17T07:58:57.811Z,27.60
2018-05-17T08:01:28.148Z,27.19
2018-05-17T08:03:58.182Z,26.85
2018-05-17T08:06:28.216Z,27.10
2018-05-17T08:08:57.876Z,27.49
2018-05-17T08:11:27.632Z,27.77
2018-05-17T08:13:57.329Z,27.78
2018-05-17T08:16:27.370Z,27.97
2018-05-17T08:18:57.112Z,28.14
2018-05-17T08:21:27.212Z,28.20
2018-05-17T08:23:57.428Z,28.32
2018-05-17T08:26:27.120Z,28.14
2018-05-17T08:28:57.502Z,28.21
2018-05-17T08:31:27.265Z,28.33
2018-05-17T08:33:57.005Z,28.63
2018-05-17T08:36:26.940Z,28.22
2018-05-17T08:38:56.646Z,28.04
2018-05-17T08:41:26.459Z,28.26
2018-05-17T08:43:56.115Z,28.20
2018-05-17T08:46:25.918Z,27.83
2018-05-17T08:48:56.047Z,27.50
2018-05-17T08:51:25.780Z,28.11
2018-05-17T08:53:55.927Z,28.29
2018-05-17T08:56:25.697Z,28.42
2018-05-17T08:58:56.078Z,28.77
2018-05-17T09:01:26.308Z,29.19
2018-05-17T09:03:56.284Z,29.51
2018-05-17T09:06:26.120Z,29.68
2018-05-17T09:08:55.805Z,30.10
2018-05-17T09:11:25.954Z,29.65
2018-05-17T09:13:55.733Z,29.32
2018-05-17T09:16:25.378Z,28.96
2018-05-17T09:18:55.063Z,29.38
2018-05-17T09:21:24.742Z,30.10
2018-05-17T09:23:54.483Z,30.52
2018-05-17T09:26:24.251Z,29.77
2018-05-17T09:28:53.941Z,30.49
2018-05-17T09:31:23.724Z,30.87
2018-05-17T09:33:53.533Z,30.71
2018-05-17T09:36:23.265Z,30.66
2018-05-17T09:38:52.938Z,31.08
2018-05-17T09:41:22.716Z,30.63
2018-05-17T09:43:52.410Z,30.47
2018-05-17T09:46:22.120Z,30.54
2018-05-17T09:48:51.838Z,30.51
2018-05-17T09:51:21.548Z,30.09
2018-05-17T09:53:51.245Z,30.06
2018-05-17T09:56:21.125Z,30.34
2018-05-17T09:58:50.947Z,30.40
2018-05-17T10:01:20.696Z,30.55
2018-05-17T10:03:50.484Z,30.55
2018-05-17T10:06:20.308Z,30.41
2018-05-17T10:08:50.027Z,30.66
2018-05-17T10:11:19.828Z,31.13
2018-05-17T10:13:49.572Z,30.66
2018-05-17T10:16:19.392Z,30.84
2018-05-17T10:18:49.078Z,30.67
2018-05-17T10:21:18.788Z,30.44
2018-05-17T10:23:48.505Z,30.18
2018-05-17T10:26:18.246Z,30.29
2018-05-17T10:28:47.932Z,30.51
2018-05-17T10:31:17.730Z,30.81
2018-05-17T10:33:47.478Z,31.14
2018-05-17T10:36:17.339Z,31.03
2018-05-17T10:38:47.025Z,30.81
2018-05-17T10:41:16.789Z,30.63
2018-05-17T10:43:46.499Z,30.95
2018-05-17T10:46:16.242Z,30.92
2018-05-17T10:48:45.944Z,31.08
2018-05-17T10:51:15.676Z,31.03
2018-05-17T10:53:45.357Z,31.05
2018-05-17T10:56:15.125Z,31.45
2018-05-17T10:58:44.817Z,31.97
2018-05-17T11:01:14.525Z,31.57
2018-05-17T11:03:44.235Z,31.63
2018-05-17T11:06:13.936Z,31.27
2018-05-17T11:08:43.614Z,30.89
2018-05-17T11:11:13.349Z,30.71
2018-05-17T11:13:43.016Z,30.72
2018-05-17T11:16:12.685Z,30.77
2018-05-17T11:18:42.409Z,30.87
2018-05-17T11:21:12.253Z,30.64
2018-05-17T11:23:42.013Z,30.89
2018-05-17T11:26:11.699Z,30.82
2018-05-17T11:28:41.376Z,31.03
2018-05-17T11:31:11.092Z,31.21
2018-05-17T11:33:40.809Z,31.45
2018-05-17T11:36:10.475Z,31.47
2018-05-17T11:38:40.188Z,31.92
2018-05-17T11:41:09.873Z,31.51
2018-05-17T11:43:39.564Z,31.41
2018-05-17T11:46:09.294Z,31.07
2018-05-17T11:48:38.975Z,30.92
2018-05-17T11:51:08.635Z,31.12
2018-05-17T11:53:38.336Z,31.16
2018-05-17T11:56:08.032Z,31.69
2018-05-17T11:58:37.773Z,32.23
2018-05-17T12:01:07.459Z,32.58
2018-05-17T12:03:37.190Z,31.96
2018-05-17T12:06:06.916Z,32.44
2018-05-17T12:08:36.599Z,32.89
2018-05-17T12:11:06.520Z,32.94
2018-05-17T12:13:36.313Z,32.61
2018-05-17T12:16:06.025Z,32.30
2018-05-17T12:18:35.760Z,32.09
2018-05-17T12:21:05.467Z,31.81
2018-05-17T12:23:35.168Z,31.99
2018-05-17T12:26:04.896Z,31.80
2018-05-17T12:28:34.581Z,31.35
2018-05-17T12:31:04.287Z,30.95
2018-05-17T12:33:34.012Z,30.85
2018-05-17T12:36:03.723Z,31.23
2018-05-17T12:38:33.413Z,31.24
2018-05-17T12:41:03.119Z,30.90
2018-05-17T12:43:32.808Z,31.13
2018-05-17T12:46:02.472Z,31.29
2018-05-17T12:48:32.230Z,31.05
2018-05-17T12:51:01.927Z,31.13
2018-05-17T12:53:31.658Z,31.02
2018-05-17T12:56:01.346Z,30.82
2018-05-17T12:58:31.076Z,31.31
2018-05-17T13:01:00.827Z,32.06
2018-05-17T13:03:30.509Z,32.48
2018-05-17T13:06:00.234Z,32.84
2018-05-17T13:08:29.921Z,33.07
2018-05-17T13:10:59.585Z,33.28
2018-05-17T13:13:29.301Z,33.15
2018-05-17T13:15:59.004Z,33.08
2018-05-17T13:18:28.674Z,33.15
2018-05-17T13:20:58.344Z,33.01
2018-05-17T13:23:28.062Z,33.45
2018-05-17T13:25:57.729Z,33.37
2018-05-17T13:28:27.473Z,33.15
2018-05-17T13:30:57.121Z,33.29
2018-05-17T13:33:26.799Z,33.82
2018-05-17T13:35:56.548Z,33.93
2018-05-17T13:38:26.214Z,33.25
2018-05-17T13:40:55.877Z,32.41
2018-05-17T13:43:25.576Z,32.38
2018-05-17T13:45:55.256Z,33.13
2018-05-17T13:48:24.942Z,33.51
2018-05-17T13:50:54.677Z,33.94
2018-05-17T13:53:24.349Z,34.15
2018-05-17T13:55:54.024Z,34.04
2018-05-17T13:58:23.757Z,34.08
2018-05-17T14:00:53.452Z,34.67
2018-05-17T14:03:23.123Z,34.83
2018-05-17T14:05:52.858Z,34.82
2018-05-17T14:08:22.590Z,34.72
2018-05-17T14:10:52.327Z,35.36
2018-05-17T14:13:21.996Z,35.19
2018-05-17T14:15:51.677Z,35.03
2018-05-17T14:18:21.429Z,34.91
2018-05-17T14:20:51.125Z,34.16
2018-05-17T14:23:20.812Z,33.81
2018-05-17T14:25:50.549Z,33.99
2018-05-17T14:28:20.239Z,33.97
2018-05-17T14:30:49.931Z,34.12
2018-05-17T14:33:19.639Z,34.39
2018-05-17T14:35:49.333Z,34.19
2018-05-17T14:38:19.010Z,33.95
2018-05-17T14:40:48.748Z,33.62
2018-05-17T14:43:18.443Z,33.48
2018-05-17T14:45:48.190Z,33.53
2018-05-17T14:48:17.905Z,33.65
2018-05-17T14:50:47.590Z,33.82
2018-05-17T14:53:17.327Z,34.16
2018-05-17T14:55:47.094Z,34.24
2018-05-17T14:58:16.741Z,33.55
2018-05-17T15:00:46.439Z,33.03
2018-05-17T15:03:16.160Z,32.72
2018-05-17T15:05:45.844Z,32.71
2018-05-17T15:08:15.576Z,32.72
2018-05-17T15:10:45.272Z,33.19
2018-05-17T15:13:15.032Z,33.69
2018-05-17T15:15:44.703Z,33.55
2018-05-17T15:18:14.389Z,33.17
2018-05-17T15:20:44.106Z,33.22
2018-05-17T15:23:13.806Z,33.12
2018-05-17T15:25:43.510Z,33.07
2018-05-17T15:28:13.258Z,32.96
2018-05-17T15:30:42.955Z,32.87
2018-05-17T15:33:12.635Z,32.03
2018-05-17T15:35:42.381Z,31.48
2018-05-17T15:38:12.100Z,31.23
2018-05-17T15:40:41.808Z,30.93
2018-05-17T15:43:11.535Z,30.55
2018-05-17T15:45:41.249Z,29.89
2018-05-17T15:48:11.111Z,29.27
2018-05-17T15:50:40.806Z,28.65
2018-05-17T15:53:10.487Z,28.34
2018-05-17T15:55:40.202Z,27.88
2018-05-17T15:58:09.922Z,27.42
2018-05-17T16:00:39.615Z,27.11
2018-05-17T16:03:09.353Z,26.72
2018-05-17T16:05:39.033Z,26.66
2018-05-17T16:08:08.804Z,26.95
2018-05-17T16:10:38.477Z,27.02
2018-05-17T16:13:08.151Z,27.06
2018-05-17T16:15:38.224Z,27.16
2018-05-17T16:18:07.883Z,27.36
2018-05-17T16:20:37.555Z,27.42
2018-05-17T16:23:07.289Z,27.52
2018-05-17T16:25:36.973Z,27.52
2018-05-17T16:28:06.693Z,27.55
2018-05-17T16:30:36.368Z,27.85
2018-05-17T16:33:06.054Z,27.95
2018-05-17T16:35:35.769Z,27.99
2018-05-17T16:38:05.460Z,27.66
2018-05-17T16:40:35.147Z,27.56
2018-05-17T16:43:04.867Z,27.70
2018-05-17T16:45:34.551Z,27.83
2018-05-17T16:48:04.229Z,27.86
2018-05-17T16:50:33.945Z,27.93
2018-05-17T16:53:03.657Z,28.08
2018-05-17T16:55:33.351Z,27.88
2018-05-17T16:58:03.070Z,27.67
2018-05-17T17:00:32.830Z,27.48
2018-05-17T17:03:02.622Z,27.32
2018-05-17T17:05:32.321Z,27.17
2018-05-17T17:08:02.024Z,27.20
2018-05-17T17:10:31.802Z,27.08
2018-05-17T17:13:01.466Z,26.71
2018-05-17T17:15:31.139Z,26.68
2018-05-17T17:18:00.908Z,26.54
2018-05-17T17:20:30.560Z,26.34
2018-05-17T17:23:00.225Z,25.98
2018-05-17T17:25:29.933Z,25.51
2018-05-17T17:27:59.615Z,25.13
2018-05-17T17:30:29.294Z,25.24
2018-05-17T17:32:59.008Z,25.30
2018-05-17T17:35:28.717Z,25.05
2018-05-17T17:37:58.466Z,24.86
2018-05-17T17:40:33.806Z,24.71
2018-05-17T17:43:03.515Z,24.36
2018-05-17T17:45:33.193Z,24.36
2018-05-17T17:48:02.890Z,24.19
2018-05-17T17:50:32.611Z,24.03
2018-05-17T17:53:02.349Z,23.85
2018-05-17T17:55:32.073Z,23.55
2018-05-17T17:58:01.786Z,23.28
2018-05-17T18:00:31.483Z,23.14
2018-05-17T18:03:01.169Z,22.85
2018-05-17T18:05:30.998Z,22.79
2018-05-17T18:08:00.660Z,22.72
2018-05-17T18:10:30.360Z,22.40
2018-05-17T18:13:00.047Z,22.26
2018-05-17T18:15:29.884Z,22.33
2018-05-17T18:17:59.623Z,22.49
2018-05-17T18:20:29.340Z,22.48
2018-05-17T18:22:59.082Z,22.38
2018-05-17T18:25:28.750Z,22.31
2018-05-17T18:27:58.440Z,22.35
2018-05-17T18:30:28.133Z,22.18
2018-05-17T18:32:58.150Z,22.06
2018-05-17T18:35:27.805Z,21.81
2018-05-17T18:37:57.573Z,21.60
2018-05-17T18:40:27.273Z,21.47
2018-05-17T18:42:56.952Z,21.29
2018-05-17T18:45:26.698Z,20.98
2018-05-17T18:47:56.405Z,20.56
2018-05-17T18:50:26.115Z,20.79
2018-05-17T18:52:55.873Z,21.03
2018-05-17T18:55:25.569Z,21.14
2018-05-17T18:57:55.292Z,21.28
2018-05-17T19:00:24.974Z,21.42
2018-05-17T19:02:54.697Z,21.49
2018-05-17T19:05:24.429Z,21.37
2018-05-17T19:07:54.086Z,21.32
2018-05-17T19:10:23.766Z,21.25
2018-05-17T19:12:53.515Z,21.23
2018-05-17T19:15:23.229Z,21.11
2018-05-17T19:17:52.931Z,21.21
2018-05-17T19:20:22.739Z,20.85
2018-05-17T19:22:52.362Z,20.66
2018-05-17T19:25:22.102Z,20.70
2018-05-17T19:27:51.777Z,20.69
2018-05-17T19:30:21.441Z,20.73
2018-05-17T19:32:51.200Z,20.72
2018-05-17T19:35:20.893Z,20.70
2018-05-17T19:37:50.579Z,20.47
2018-05-17T19:40:20.323Z,20.43
2018-05-17T19:42:50.059Z,20.23
2018-05-17T19:45:19.827Z,20.21
2018-05-17T19:47:49.548Z,20.19
2018-05-17T19:50:19.240Z,20.09
2018-05-17T19:52:48.972Z,20.14
2018-05-17T19:55:18.680Z,20.10
2018-05-17T19:57:48.366Z,20.06
2018-05-17T20:00:18.095Z,19.92
2018-05-17T20:02:47.800Z,19.66
2018-05-17T20:05:17.524Z,19.65
2018-05-17T20:07:47.250Z,19.75
2018-05-17T20:10:16.916Z,19.55
2018-05-17T20:12:46.602Z,19.55
2018-05-17T20:15:16.421Z,19.61
2018-05-17T20:17:46.154Z,19.49
2018-05-17T20:20:15.986Z,19.33
2018-05-17T20:22:45.710Z,19.34
2018-05-17T20:25:15.861Z,19.28
2018-05-17T20:27:45.570Z,19.26
2018-05-17T20:30:15.266Z,19.08
2018-05-17T20:32:45.082Z,19.09
2018-05-17T20:35:14.763Z,18.97
2018-05-17T20:37:44.440Z,18.85
2018-05-17T20:40:14.835Z,19.00
2018-05-17T20:42:44.620Z,18.92
2018-05-17T20:45:14.687Z,18.83
2018-05-17T20:47:44.568Z,18.83
2018-05-17T20:50:14.237Z,18.46
2018-05-17T20:52:44.012Z,18.30
2018-05-17T20:55:14.157Z,18.47
2018-05-17T20:57:43.907Z,18.62
2018-05-17T21:00:13.632Z,18.70
2018-05-17T21:02:43.300Z,18.69
2018-05-17T21:05:13.577Z,18.65
2018-05-17T21:07:43.567Z,18.57
2018-05-17T21:10:13.310Z,18.48
2018-05-17T21:12:43.002Z,18.47
2018-05-17T21:15:13.170Z,18.39
2018-05-17T21:17:43.083Z,18.38
2018-05-17T21:20:12.813Z,18.28
2018-05-17T21:22:42.540Z,18.24
2018-05-17T21:25:12.395Z,18.15
2018-05-17T21:27:42.111Z,18.17
2018-05-17T21:30:11.884Z,18.07
2018-05-17T21:32:42.485Z,18.03
2018-05-17T21:35:12.206Z,18.07
2018-05-17T21:37:41.947Z,18.09
2018-05-17T21:40:11.620Z,18.13
2018-05-17T21:42:41.305Z,18.17
2018-05-17T21:45:11.016Z,18.15
2018-05-17T21:47:40.690Z,18.13
2018-05-17T21:50:10.357Z,18.22
2018-05-17T21:52:40.556Z,18.27
2018-05-17T21:55:10.241Z,18.25
2018-05-17T21:57:40.000Z,18.16
2018-05-17T22:00:09.763Z,18.13
2018-05-17T22:02:39.469Z,18.13
2018-05-17T22:05:09.743Z,18.12
2018-05-17T22:07:39.529Z,18.06
2018-05-17T22:10:09.261Z,18.02
2018-05-17T22:12:39.394Z,18.01
2018-05-17T22:15:09.521Z,18.05
2018-05-17T22:17:39.234Z,18.07
2018-05-17T22:20:08.950Z,17.99
2018-05-17T22:22:38.751Z,17.97
2018-05-17T22:25:08.495Z,17.88
2018-05-17T22:27:38.333Z,17.88
2018-05-17T22:30:08.038Z,17.87
2018-05-17T22:32:38.224Z,18.05
2018-05-17T22:35:07.894Z,18.14
2018-05-17T22:37:37.603Z,18.13
2018-05-17T22:40:07.292Z,18.01
2018-05-17T22:42:37.074Z,17.98
2018-05-17T22:45:07.895Z,17.94
2018-05-17T22:47:37.864Z,17.71
2018-05-17T22:50:07.581Z,17.52
2018-05-17T22:52:37.743Z,17.24
2018-05-17T22:55:07.612Z,17.27
2018-05-17T22:57:49.503Z,17.36
2018-05-17T23:00:19.220Z,17.36
2018-05-17T23:02:48.919Z,17.35
2018-05-17T23:05:19.027Z,17.55
2018-05-17T23:07:48.846Z,17.51
2018-05-17T23:10:18.580Z,17.53
2018-05-17T23:12:48.288Z,17.48
2018-05-17T23:15:17.984Z,17.44
2018-05-17T23:17:47.689Z,17.18
2018-05-17T23:20:17.426Z,17.20
2018-05-17T23:22:47.076Z,17.34
2018-05-17T23:25:16.783Z,17.36
2018-05-17T23:27:46.516Z,17.24
2018-05-17T23:30:16.212Z,17.26
2018-05-17T23:32:46.461Z,17.26
2018-05-17T23:35:17.167Z,17.17
2018-05-17T23:37:47.062Z,17.16
2018-05-17T23:40:28.642Z,17.12
2018-05-17T23:42:58.997Z,17.15
2018-05-17T23:45:29.350Z,16.95
2018-05-17T23:47:59.915Z,16.93
2018-05-17T23:50:30.038Z,16.95
2018-05-17T23:53:00.170Z,17.04
2018-05-17T23:55:30.917Z,17.04
2018-05-17T23:58:01.277Z,17.05
